sensor_id;sensor_type;location;lat;lon;timestamp;pressure;altitude;pressure_sealevel;temperature;humidity
20971;BME280;10644;48.834;10.088;2023-03-16T00:02:20;97057.00;;;6.69;54.51
20971;BME280;10644;48.834;10.088;2023-03-16T00:05:00;97055.38;;;6.67;54.39
20971;BME280;10644;48.834;10.088;2023-03-16T00:07:25;97058.66;;;6.70;53.95
20971;BME280;10644;48.834;10.088;2023-03-16T00:09:53;97049.53;;;6.65;53.60
20971;BME280;10644;48.834;10.088;2023-03-16T00:12:18;97061.59;;;6.58;54.29
20971;BME280;10644;48.834;10.088;2023-03-16T00:14:48;97055.75;;;6.56;53.69
20971;BME280;10644;48.834;10.088;2023-03-16T00:17:24;97056.69;;;6.54;54.20
20971;BME280;10644;48.834;10.088;2023-03-16T00:19:54;97068.66;;;6.50;54.24
20971;BME280;10644;48.834;10.088;2023-03-16T00:22:33;97066.13;;;6.50;53.87
20971;BME280;10644;48.834;10.088;2023-03-16T00:25:08;97076.19;;;6.53;53.88
20971;BME280;10644;48.834;10.088;2023-03-16T00:27:39;97064.44;;;6.49;54.31
20971;BME280;10644;48.834;10.088;2023-03-16T00:30:18;97060.19;;;6.50;54.13
20971;BME280;10644;48.834;10.088;2023-03-16T00:32:53;97059.25;;;6.52;54.19
20971;BME280;10644;48.834;10.088;2023-03-16T00:35:27;97076.88;;;6.58;54.05
20971;BME280;10644;48.834;10.088;2023-03-16T00:37:55;97074.53;;;6.52;53.69
20971;BME280;10644;48.834;10.088;2023-03-16T00:40:22;97066.22;;;6.47;54.53
20971;BME280;10644;48.834;10.088;2023-03-16T00:42:53;97077.13;;;6.51;53.88
20971;BME280;10644;48.834;10.088;2023-03-16T00:45:20;97069.53;;;6.49;53.63
20971;BME280;10644;48.834;10.088;2023-03-16T00:47:58;97069.53;;;6.49;54.11
20971;BME280;10644;48.834;10.088;2023-03-16T00:53:34;97073.59;;;6.55;53.60
20971;BME280;10644;48.834;10.088;2023-03-16T00:56:00;97077.84;;;6.54;53.37
20971;BME280;10644;48.834;10.088;2023-03-16T00:58:40;97084.66;;;6.54;53.48
20971;BME280;10644;48.834;10.088;2023-03-16T01:01:13;97070.53;;;6.45;53.67
20971;BME280;10644;48.834;10.088;2023-03-16T01:03:45;97068.78;;;6.46;53.48
20971;BME280;10644;48.834;10.088;2023-03-16T01:06:19;97053.00;;;6.36;53.64
20971;BME280;10644;48.834;10.088;2023-03-16T01:09:08;97062.94;;;6.44;53.78
20971;BME280;10644;48.834;10.088;2023-03-16T01:11:33;97073.06;;;6.45;53.11
20971;BME280;10644;48.834;10.088;2023-03-16T01:14:12;97060.53;;;6.39;53.37
20971;BME280;10644;48.834;10.088;2023-03-16T01:16:38;97057.63;;;6.24;53.33
20971;BME280;10644;48.834;10.088;2023-03-16T01:19:31;97066.97;;;6.23;53.74
20971;BME280;10644;48.834;10.088;2023-03-16T01:22:18;97052.69;;;6.19;53.63
20971;BME280;10644;48.834;10.088;2023-03-16T01:24:46;97057.69;;;6.22;53.75
20971;BME280;10644;48.834;10.088;2023-03-16T01:27:14;97054.34;;;6.20;53.24
20971;BME280;10644;48.834;10.088;2023-03-16T01:29:44;97056.06;;;6.20;53.46
20971;BME280;10644;48.834;10.088;2023-03-16T01:32:25;97057.19;;;6.11;53.37
20971;BME280;10644;48.834;10.088;2023-03-16T01:35:00;97052.19;;;6.08;53.78
20971;BME280;10644;48.834;10.088;2023-03-16T01:37:55;97054.69;;;6.10;53.66
20971;BME280;10644;48.834;10.088;2023-03-16T01:40:48;97054.53;;;6.14;53.29
20971;BME280;10644;48.834;10.088;2023-03-16T01:43:18;97043.47;;;6.15;53.42
20971;BME280;10644;48.834;10.088;2023-03-16T01:54:27;97033.69;;;6.03;53.53
20971;BME280;10644;48.834;10.088;2023-03-16T01:57:18;97032.78;;;6.06;53.04
20971;BME280;10644;48.834;10.088;2023-03-16T02:00:13;97037.09;;;6.04;52.97
20971;BME280;10644;48.834;10.088;2023-03-16T02:03:09;97028.63;;;6.03;53.19
20971;BME280;10644;48.834;10.088;2023-03-16T02:06:08;97034.78;;;5.96;53.28
20971;BME280;10644;48.834;10.088;2023-03-16T02:08:42;97034.25;;;5.85;53.06
20971;BME280;10644;48.834;10.088;2023-03-16T02:11:17;97028.41;;;5.83;53.49
20971;BME280;10644;48.834;10.088;2023-03-16T02:13:44;97045.28;;;5.86;53.37
20971;BME280;10644;48.834;10.088;2023-03-16T02:16:13;97050.22;;;5.90;53.65
20971;BME280;10644;48.834;10.088;2023-03-16T02:18:46;97041.88;;;5.85;53.29
20971;BME280;10644;48.834;10.088;2023-03-16T02:21:37;97040.00;;;5.92;53.45
20971;BME280;10644;48.834;10.088;2023-03-16T02:24:08;97038.41;;;5.88;53.30
20971;BME280;10644;48.834;10.088;2023-03-16T02:26:48;97037.09;;;5.75;53.04
20971;BME280;10644;48.834;10.088;2023-03-16T02:32:13;97039.69;;;5.73;53.90
20971;BME280;10644;48.834;10.088;2023-03-16T02:34:54;97038.75;;;5.76;53.61
20971;BME280;10644;48.834;10.088;2023-03-16T02:37:34;97029.41;;;5.76;53.59
20971;BME280;10644;48.834;10.088;2023-03-16T02:43:30;97029.28;;;5.82;53.62
20971;BME280;10644;48.834;10.088;2023-03-16T02:46:01;97027.66;;;5.78;53.68
20971;BME280;10644;48.834;10.088;2023-03-16T02:48:38;97025.94;;;5.80;54.07
20971;BME280;10644;48.834;10.088;2023-03-16T02:51:21;97021.72;;;5.79;53.59
20971;BME280;10644;48.834;10.088;2023-03-16T02:53:55;97003.41;;;5.68;53.56
20971;BME280;10644;48.834;10.088;2023-03-16T02:56:21;97016.09;;;5.68;53.82
20971;BME280;10644;48.834;10.088;2023-03-16T02:58:47;97005.06;;;5.69;53.73
20971;BME280;10644;48.834;10.088;2023-03-16T03:01:37;97012.44;;;5.78;53.59
20971;BME280;10644;48.834;10.088;2023-03-16T03:04:16;97007.53;;;5.72;53.77
20971;BME280;10644;48.834;10.088;2023-03-16T03:06:47;97010.19;;;5.68;54.36
20971;BME280;10644;48.834;10.088;2023-03-16T03:09:13;97006.22;;;5.59;54.06
20971;BME280;10644;48.834;10.088;2023-03-16T03:12:02;97019.78;;;5.58;54.30
20971;BME280;10644;48.834;10.088;2023-03-16T03:14:36;97020.63;;;5.59;54.14
20971;BME280;10644;48.834;10.088;2023-03-16T03:17:15;97011.41;;;5.56;54.77
20971;BME280;10644;48.834;10.088;2023-03-16T03:19:48;97009.81;;;5.52;55.29
20971;BME280;10644;48.834;10.088;2023-03-16T03:22:26;97003.97;;;5.50;55.38
20971;BME280;10644;48.834;10.088;2023-03-16T03:24:53;97002.03;;;5.57;55.21
20971;BME280;10644;48.834;10.088;2023-03-16T03:30:46;97006.84;;;5.38;55.96
20971;BME280;10644;48.834;10.088;2023-03-16T03:33:20;96998.53;;;5.33;56.20
20971;BME280;10644;48.834;10.088;2023-03-16T03:35:59;97005.19;;;5.37;56.04
20971;BME280;10644;48.834;10.088;2023-03-16T03:41:38;97003.97;;;5.50;56.26
20971;BME280;10644;48.834;10.088;2023-03-16T03:44:21;96997.81;;;5.57;55.82
20971;BME280;10644;48.834;10.088;2023-03-16T03:46:54;97005.28;;;5.62;55.77
20971;BME280;10644;48.834;10.088;2023-03-16T03:49:26;96997.81;;;5.57;55.91
20971;BME280;10644;48.834;10.088;2023-03-16T03:52:04;97011.47;;;5.53;56.30
20971;BME280;10644;48.834;10.088;2023-03-16T03:54:31;96996.41;;;5.47;56.43
20971;BME280;10644;48.834;10.088;2023-03-16T03:57:15;96995.97;;;5.35;57.44
20971;BME280;10644;48.834;10.088;2023-03-16T04:02:48;96999.53;;;4.97;58.98
20971;BME280;10644;48.834;10.088;2023-03-16T04:05:18;97001.44;;;4.91;59.57
20971;BME280;10644;48.834;10.088;2023-03-16T04:07:56;96988.56;;;4.66;60.26
20971;BME280;10644;48.834;10.088;2023-03-16T04:10:29;96980.63;;;4.46;61.11
20971;BME280;10644;48.834;10.088;2023-03-16T04:12:55;96980.28;;;4.58;61.03
20971;BME280;10644;48.834;10.088;2023-03-16T04:15:23;96981.38;;;4.82;60.33
20971;BME280;10644;48.834;10.088;2023-03-16T04:17:58;96978.75;;;4.85;60.04
20971;BME280;10644;48.834;10.088;2023-03-16T04:20:34;96977.41;;;5.02;59.40
20971;BME280;10644;48.834;10.088;2023-03-16T04:23:00;96981.28;;;5.15;58.75
20971;BME280;10644;48.834;10.088;2023-03-16T04:25:31;96983.75;;;5.17;58.91
20971;BME280;10644;48.834;10.088;2023-03-16T04:27:57;96983.69;;;4.89;60.03
20971;BME280;10644;48.834;10.088;2023-03-16T04:30:27;96961.03;;;4.83;60.43
20971;BME280;10644;48.834;10.088;2023-03-16T04:32:59;96967.69;;;4.87;60.82
20971;BME280;10644;48.834;10.088;2023-03-16T04:35:40;96950.69;;;4.91;60.19
20971;BME280;10644;48.834;10.088;2023-03-16T04:38:13;96954.00;;;4.93;60.60
20971;BME280;10644;48.834;10.088;2023-03-16T04:41:12;96967.63;;;4.89;60.77
20971;BME280;10644;48.834;10.088;2023-03-16T04:43:39;96963.47;;;4.86;60.80
20971;BME280;10644;48.834;10.088;2023-03-16T04:46:26;96954.81;;;4.64;61.96
20971;BME280;10644;48.834;10.088;2023-03-16T04:48:59;96959.78;;;4.67;61.23
20971;BME280;10644;48.834;10.088;2023-03-16T04:51:31;96958.78;;;4.73;61.29
20971;BME280;10644;48.834;10.088;2023-03-16T04:54:14;96945.81;;;4.83;60.68
20971;BME280;10644;48.834;10.088;2023-03-16T04:56:48;96952.38;;;4.90;60.50
20971;BME280;10644;48.834;10.088;2023-03-16T04:59:25;96946.88;;;5.05;60.17
20971;BME280;10644;48.834;10.088;2023-03-16T05:01:54;96952.78;;;5.06;59.86
20971;BME280;10644;48.834;10.088;2023-03-16T05:04:35;96949.94;;;5.16;59.80
20971;BME280;10644;48.834;10.088;2023-03-16T05:07:08;96947.19;;;5.24;59.33
20971;BME280;10644;48.834;10.088;2023-03-16T05:09:44;96942.75;;;5.30;59.40
20971;BME280;10644;48.834;10.088;2023-03-16T05:12:24;96935.75;;;5.38;59.04
20971;BME280;10644;48.834;10.088;2023-03-16T05:14:58;96943.56;;;5.32;59.66
20971;BME280;10644;48.834;10.088;2023-03-16T05:17:31;96956.25;;;5.32;59.56
20971;BME280;10644;48.834;10.088;2023-03-16T05:20:11;96949.31;;;5.08;60.54
20971;BME280;10644;48.834;10.088;2023-03-16T05:22:45;96955.97;;;5.12;60.14
20971;BME280;10644;48.834;10.088;2023-03-16T05:25:21;96954.50;;;5.05;60.46
20971;BME280;10644;48.834;10.088;2023-03-16T05:27:52;96936.81;;;5.02;60.74
20971;BME280;10644;48.834;10.088;2023-03-16T05:30:32;96938.31;;;5.09;60.27
20971;BME280;10644;48.834;10.088;2023-03-16T05:32:57;96941.53;;;5.14;60.51
20971;BME280;10644;48.834;10.088;2023-03-16T05:35:25;96942.41;;;5.13;60.69
20971;BME280;10644;48.834;10.088;2023-03-16T05:37:53;96935.31;;;4.95;60.78
20971;BME280;10644;48.834;10.088;2023-03-16T05:40:29;96943.47;;;5.06;60.47
20971;BME280;10644;48.834;10.088;2023-03-16T05:43:06;96943.09;;;5.18;60.35
20971;BME280;10644;48.834;10.088;2023-03-16T05:45:51;96944.19;;;5.10;60.99
20971;BME280;10644;48.834;10.088;2023-03-16T05:48:34;96946.22;;;4.99;61.38
20971;BME280;10644;48.834;10.088;2023-03-16T05:51:04;96944.41;;;5.02;61.70
20971;BME280;10644;48.834;10.088;2023-03-16T05:53:44;96947.88;;;5.00;62.02
20971;BME280;10644;48.834;10.088;2023-03-16T05:56:13;96949.97;;;5.15;61.77
20971;BME280;10644;48.834;10.088;2023-03-16T05:58:41;96942.66;;;5.33;61.00
20971;BME280;10644;48.834;10.088;2023-03-16T06:01:25;96954.13;;;5.46;60.39
20971;BME280;10644;48.834;10.088;2023-03-16T06:04:07;96946.13;;;5.58;60.00
20971;BME280;10644;48.834;10.088;2023-03-16T06:06:38;96943.38;;;5.38;60.48
20971;BME280;10644;48.834;10.088;2023-03-16T06:09:04;96947.75;;;5.33;60.62
20971;BME280;10644;48.834;10.088;2023-03-16T06:11:35;96943.59;;;5.31;60.76
20971;BME280;10644;48.834;10.088;2023-03-16T06:14:01;96947.13;;;5.25;60.64
20971;BME280;10644;48.834;10.088;2023-03-16T06:16:29;96947.81;;;5.30;61.10
20971;BME280;10644;48.834;10.088;2023-03-16T06:18:55;96935.75;;;5.38;60.72
20971;BME280;10644;48.834;10.088;2023-03-16T06:21:24;96952.38;;;5.19;61.25
20971;BME280;10644;48.834;10.088;2023-03-16T06:23:53;96943.47;;;5.06;61.30
20971;BME280;10644;48.834;10.088;2023-03-16T06:26:22;96948.78;;;4.97;62.14
20971;BME280;10644;48.834;10.088;2023-03-16T06:28:52;96946.31;;;4.96;62.57
20971;BME280;10644;48.834;10.088;2023-03-16T06:31:24;96960.53;;;5.01;62.50
20971;BME280;10644;48.834;10.088;2023-03-16T06:33:54;96952.19;;;4.96;62.60
20971;BME280;10644;48.834;10.088;2023-03-16T06:36:25;96961.03;;;4.83;63.15
20971;BME280;10644;48.834;10.088;2023-03-16T06:38:53;96945.06;;;4.80;63.05
20971;BME280;10644;48.834;10.088;2023-03-16T06:41:36;96957.25;;;4.98;62.64
20971;BME280;10644;48.834;10.088;2023-03-16T06:44:15;96958.72;;;5.05;62.57
20971;BME280;10644;48.834;10.088;2023-03-16T06:46:41;96958.13;;;4.97;62.95
20971;BME280;10644;48.834;10.088;2023-03-16T06:49:24;96958.19;;;4.94;63.40
20971;BME280;10644;48.834;10.088;2023-03-16T06:51:49;96965.25;;;5.13;62.62
20971;BME280;10644;48.834;10.088;2023-03-16T06:54:26;96960.88;;;5.18;62.56
20971;BME280;10644;48.834;10.088;2023-03-16T06:57:11;96954.34;;;5.10;62.71
20971;BME280;10644;48.834;10.088;2023-03-16T06:59:46;96955.59;;;5.26;62.45
20971;BME280;10644;48.834;10.088;2023-03-16T07:02:17;96938.38;;;5.35;61.75
20971;BME280;10644;48.834;10.088;2023-03-16T07:04:48;96936.84;;;5.57;62.00
20971;BME280;10644;48.834;10.088;2023-03-16T07:07:14;96937.53;;;5.62;61.10
20971;BME280;10644;48.834;10.088;2023-03-16T07:10:03;96946.38;;;5.78;61.17
20971;BME280;10644;48.834;10.088;2023-03-16T07:12:44;96949.50;;;5.86;61.60
20971;BME280;10644;48.834;10.088;2023-03-16T07:15:18;96941.56;;;5.69;61.09
20971;BME280;10644;48.834;10.088;2023-03-16T07:17:48;96944.00;;;5.72;60.68
20971;BME280;10644;48.834;10.088;2023-03-16T07:20:22;96956.75;;;5.71;60.79
20971;BME280;10644;48.834;10.088;2023-03-16T07:22:56;96948.22;;;5.73;61.04
20971;BME280;10644;48.834;10.088;2023-03-16T07:25:30;96949.72;;;5.80;60.36
20971;BME280;10644;48.834;10.088;2023-03-16T07:28:12;96954.03;;;5.77;60.87
20971;BME280;10644;48.834;10.088;2023-03-16T07:30:45;96969.84;;;5.86;60.79
20971;BME280;10644;48.834;10.088;2023-03-16T07:33:10;96960.53;;;5.87;60.76
20971;BME280;10644;48.834;10.088;2023-03-16T07:35:39;96962.75;;;5.68;61.82
20971;BME280;10644;48.834;10.088;2023-03-16T07:38:08;96952.84;;;5.88;61.16
20971;BME280;10644;48.834;10.088;2023-03-16T07:44:22;96957.25;;;6.09;61.49
20971;BME280;10644;48.834;10.088;2023-03-16T07:46:48;96958.81;;;6.13;60.61
20971;BME280;10644;48.834;10.088;2023-03-16T07:49:14;96954.44;;;6.17;61.08
20971;BME280;10644;48.834;10.088;2023-03-16T07:51:59;96967.59;;;6.29;60.68
20971;BME280;10644;48.834;10.088;2023-03-16T07:54:44;96969.94;;;6.35;60.84
20971;BME280;10644;48.834;10.088;2023-03-16T07:57:09;96959.78;;;6.35;60.99
20971;BME280;10644;48.834;10.088;2023-03-16T07:59:41;96966.63;;;6.33;61.48
20971;BME280;10644;48.834;10.088;2023-03-16T08:05:04;96956.94;;;6.92;59.72
20971;BME280;10644;48.834;10.088;2023-03-16T08:07:30;96955.47;;;7.09;59.13
20971;BME280;10644;48.834;10.088;2023-03-16T08:10:18;96963.31;;;7.26;58.57
20971;BME280;10644;48.834;10.088;2023-03-16T08:12:51;96958.66;;;7.37;58.32
20971;BME280;10644;48.834;10.088;2023-03-16T08:15:27;96954.91;;;7.24;58.66
20971;BME280;10644;48.834;10.088;2023-03-16T08:18:00;96959.13;;;7.25;58.72
20971;BME280;10644;48.834;10.088;2023-03-16T08:20:34;96954.78;;;7.04;59.37
20971;BME280;10644;48.834;10.088;2023-03-16T08:23:11;96951.25;;;7.31;59.09
20971;BME280;10644;48.834;10.088;2023-03-16T08:25:53;96951.50;;;7.47;58.77
20971;BME280;10644;48.834;10.088;2023-03-16T08:28:23;96938.16;;;7.63;58.79
20971;BME280;10644;48.834;10.088;2023-03-16T08:30:52;96939.84;;;7.84;57.64
20971;BME280;10644;48.834;10.088;2023-03-16T08:33:24;96938.44;;;7.77;58.22
20971;BME280;10644;48.834;10.088;2023-03-16T08:36:09;96941.31;;;8.11;57.60
20971;BME280;10644;48.834;10.088;2023-03-16T08:38:42;96942.69;;;7.98;57.14
20971;BME280;10644;48.834;10.088;2023-03-16T08:41:17;96941.94;;;8.16;57.25
20971;BME280;10644;48.834;10.088;2023-03-16T08:44:01;96944.97;;;8.26;56.08
20971;BME280;10644;48.834;10.088;2023-03-16T08:46:30;96942.25;;;8.30;56.36
20971;BME280;10644;48.834;10.088;2023-03-16T08:49:00;96941.47;;;8.28;56.30
20971;BME280;10644;48.834;10.088;2023-03-16T08:51:29;96945.69;;;8.29;55.63
20971;BME280;10644;48.834;10.088;2023-03-16T08:54:02;96955.53;;;8.38;55.18
20971;BME280;10644;48.834;10.088;2023-03-16T08:57:00;96953.47;;;8.46;56.05
20971;BME280;10644;48.834;10.088;2023-03-16T08:59:28;96941.25;;;8.54;55.67
20971;BME280;10644;48.834;10.088;2023-03-16T09:02:13;96942.53;;;8.64;55.64
20971;BME280;10644;48.834;10.088;2023-03-16T09:04:41;96941.75;;;8.62;54.87
20971;BME280;10644;48.834;10.088;2023-03-16T09:07:08;96947.75;;;8.61;54.74
20971;BME280;10644;48.834;10.088;2023-03-16T09:09:40;96935.72;;;8.63;54.99
20971;BME280;10644;48.834;10.088;2023-03-16T09:12:07;96936.75;;;8.79;54.68
20971;BME280;10644;48.834;10.088;2023-03-16T09:14:35;96936.34;;;8.88;54.65
20971;BME280;10644;48.834;10.088;2023-03-16T09:17:05;96942.72;;;9.17;53.66
20971;BME280;10644;48.834;10.088;2023-03-16T09:19:36;96930.75;;;9.37;53.39
20971;BME280;10644;48.834;10.088;2023-03-16T09:22:22;96934.84;;;9.58;54.12
20971;BME280;10644;48.834;10.088;2023-03-16T09:25:03;96929.59;;;9.80;52.85
20971;BME280;10644;48.834;10.088;2023-03-16T09:27:40;96925.38;;;9.79;52.76
20971;BME280;10644;48.834;10.088;2023-03-16T09:30:25;96933.31;;;9.73;51.17
20971;BME280;10644;48.834;10.088;2023-03-16T09:32:53;96940.41;;;9.68;51.78
20971;BME280;10644;48.834;10.088;2023-03-16T09:35:26;96932.13;;;9.63;52.02
20971;BME280;10644;48.834;10.088;2023-03-16T09:37:53;96934.56;;;9.64;51.85
20971;BME280;10644;48.834;10.088;2023-03-16T09:40:54;96931.72;;;9.70;52.59
20971;BME280;10644;48.834;10.088;2023-03-16T09:46:49;96925.31;;;10.33;50.10
20971;BME280;10644;48.834;10.088;2023-03-16T09:49:26;96924.28;;;10.01;50.30
20971;BME280;10644;48.834;10.088;2023-03-16T09:57:49;96908.28;;;10.66;49.92
20971;BME280;10644;48.834;10.088;2023-03-16T10:00:22;96918.44;;;10.67;48.55
20971;BME280;10644;48.834;10.088;2023-03-16T10:06:19;96901.28;;;10.52;49.20
20971;BME280;10644;48.834;10.088;2023-03-16T10:09:16;96894.50;;;10.84;48.58
20971;BME280;10644;48.834;10.088;2023-03-16T10:11:48;96893.81;;;10.97;47.77
20971;BME280;10644;48.834;10.088;2023-03-16T10:14:53;96886.91;;;11.30;47.88
20971;BME280;10644;48.834;10.088;2023-03-16T10:20:43;96874.81;;;11.79;47.28
20971;BME280;10644;48.834;10.088;2023-03-16T10:23:22;96870.44;;;12.10;47.49
20971;BME280;10644;48.834;10.088;2023-03-16T10:26:17;96861.53;;;12.45;46.07
20971;BME280;10644;48.834;10.088;2023-03-16T10:28:45;96851.63;;;12.39;44.18
20971;BME280;10644;48.834;10.088;2023-03-16T10:31:15;96858.88;;;12.33;43.38
20971;BME280;10644;48.834;10.088;2023-03-16T10:33:41;96846.06;;;12.17;43.98
20971;BME280;10644;48.834;10.088;2023-03-16T10:38:59;96844.78;;;12.10;43.71
20971;BME280;10644;48.834;10.088;2023-03-16T10:41:42;96857.22;;;12.02;44.77
20971;BME280;10644;48.834;10.088;2023-03-16T10:44:27;96863.81;;;12.36;42.44
20971;BME280;10644;48.834;10.088;2023-03-16T10:53:15;96843.13;;;13.23;42.95
20971;BME280;10644;48.834;10.088;2023-03-16T10:55:47;96842.06;;;13.39;43.22
20971;BME280;10644;48.834;10.088;2023-03-16T10:58:37;96840.53;;;13.23;42.54
20971;BME280;10644;48.834;10.088;2023-03-16T11:01:38;96845.00;;;13.33;42.65
20971;BME280;10644;48.834;10.088;2023-03-16T11:04:29;96836.97;;;13.25;43.33
20971;BME280;10644;48.834;10.088;2023-03-16T11:07:00;96829.09;;;13.41;42.43
20971;BME280;10644;48.834;10.088;2023-03-16T11:09:32;96833.88;;;13.32;41.47
20971;BME280;10644;48.834;10.088;2023-03-16T11:12:22;96840.09;;;13.16;42.01
20971;BME280;10644;48.834;10.088;2023-03-16T11:14:52;96833.88;;;13.32;42.11
20971;BME280;10644;48.834;10.088;2023-03-16T11:17:43;96849.09;;;13.09;43.08
20971;BME280;10644;48.834;10.088;2023-03-16T11:20:44;96833.94;;;13.19;42.45
20971;BME280;10644;48.834;10.088;2023-03-16T11:23:39;96829.47;;;13.08;41.40
20971;BME280;10644;48.834;10.088;2023-03-16T11:26:26;96818.41;;;12.92;42.03
20971;BME280;10644;48.834;10.088;2023-03-16T11:32:25;96815.09;;;12.90;42.22
20971;BME280;10644;48.834;10.088;2023-03-16T11:34:56;96828.91;;;12.75;42.11
20971;BME280;10644;48.834;10.088;2023-03-16T11:43:56;96838.56;;;13.40;41.17
20971;BME280;10644;48.834;10.088;2023-03-16T11:47:23;96832.63;;;13.52;41.16
20971;BME280;10644;48.834;10.088;2023-03-16T11:52:40;96828.41;;;14.04;40.77
20971;BME280;10644;48.834;10.088;2023-03-16T12:13:29;96810.03;;;14.60;38.14
20971;BME280;10644;48.834;10.088;2023-03-16T12:16:44;96810.00;;;14.72;37.16
20971;BME280;10644;48.834;10.088;2023-03-16T12:19:20;96789.78;;;14.79;37.81
20971;BME280;10644;48.834;10.088;2023-03-16T12:24:51;96784.19;;;15.21;38.08
20971;BME280;10644;48.834;10.088;2023-03-16T12:27:37;96774.53;;;15.48;37.49
20971;BME280;10644;48.834;10.088;2023-03-16T12:36:44;96778.31;;;14.83;36.94
20971;BME280;10644;48.834;10.088;2023-03-16T12:49:34;96760.84;;;15.58;35.81
20971;BME280;10644;48.834;10.088;2023-03-16T12:52:09;96771.78;;;15.62;36.94
20971;BME280;10644;48.834;10.088;2023-03-16T12:58:21;96757.56;;;15.91;36.90
20971;BME280;10644;48.834;10.088;2023-03-16T13:00:57;96751.56;;;15.90;36.76
20971;BME280;10644;48.834;10.088;2023-03-16T13:03:33;96754.25;;;15.78;35.70
20971;BME280;10644;48.834;10.088;2023-03-16T13:06:02;96753.16;;;15.46;37.67
20971;BME280;10644;48.834;10.088;2023-03-16T13:08:45;96749.78;;;15.80;36.73
20971;BME280;10644;48.834;10.088;2023-03-16T13:11:47;96756.00;;;15.77;37.82
20971;BME280;10644;48.834;10.088;2023-03-16T13:14:42;96754.28;;;15.89;37.59
20971;BME280;10644;48.834;10.088;2023-03-16T13:17:31;96746.09;;;16.28;37.73
20971;BME280;10644;48.834;10.088;2023-03-16T13:20:57;96736.28;;;16.66;36.90
20971;BME280;10644;48.834;10.088;2023-03-16T13:26:15;96736.81;;;15.69;37.25
20971;BME280;10644;48.834;10.088;2023-03-16T13:28:44;96736.44;;;15.97;36.51
20971;BME280;10644;48.834;10.088;2023-03-16T13:31:34;96737.81;;;15.79;36.47
20971;BME280;10644;48.834;10.088;2023-03-16T13:34:13;96738.34;;;16.06;37.10
20971;BME280;10644;48.834;10.088;2023-03-16T13:36:42;96741.41;;;16.33;36.82
20971;BME280;10644;48.834;10.088;2023-03-16T13:39:27;96737.59;;;16.60;36.14
20971;BME280;10644;48.834;10.088;2023-03-16T13:45:20;96729.19;;;16.90;36.56
20971;BME280;10644;48.834;10.088;2023-03-16T13:47:47;96722.75;;;16.95;35.34
20971;BME280;10644;48.834;10.088;2023-03-16T13:50:16;96726.31;;;16.61;35.52
20971;BME280;10644;48.834;10.088;2023-03-16T13:52:51;96730.13;;;16.12;36.08
20971;BME280;10644;48.834;10.088;2023-03-16T13:55:25;96730.59;;;16.06;36.76
20971;BME280;10644;48.834;10.088;2023-03-16T13:57:53;96723.09;;;16.36;36.46
20971;BME280;10644;48.834;10.088;2023-03-16T14:00:22;96717.72;;;16.39;36.55
20971;BME280;10644;48.834;10.088;2023-03-16T14:02:58;96720.50;;;16.36;36.31
20971;BME280;10644;48.834;10.088;2023-03-16T14:05:31;96717.84;;;16.48;35.12
20971;BME280;10644;48.834;10.088;2023-03-16T14:08:26;96721.13;;;16.39;35.82
20971;BME280;10644;48.834;10.088;2023-03-16T14:11:05;96707.03;;;16.54;35.58
20971;BME280;10644;48.834;10.088;2023-03-16T14:13:33;96698.44;;;16.43;35.56
20971;BME280;10644;48.834;10.088;2023-03-16T14:16:14;96694.41;;;16.06;35.69
20971;BME280;10644;48.834;10.088;2023-03-16T14:24:31;96697.97;;;16.60;36.01
20971;BME280;10644;48.834;10.088;2023-03-16T14:27:21;96698.53;;;16.74;35.17
20971;BME280;10644;48.834;10.088;2023-03-16T14:30:00;96691.16;;;16.59;34.55
20971;BME280;10644;48.834;10.088;2023-03-16T14:32:31;96685.03;;;16.49;35.89
20971;BME280;10644;48.834;10.088;2023-03-16T14:37:47;96688.53;;;16.37;35.32
20971;BME280;10644;48.834;10.088;2023-03-16T14:40:25;96683.56;;;15.79;36.09
20971;BME280;10644;48.834;10.088;2023-03-16T14:43:00;96690.91;;;15.61;36.22
20971;BME280;10644;48.834;10.088;2023-03-16T14:45:35;96671.22;;;15.82;35.78
20971;BME280;10644;48.834;10.088;2023-03-16T14:48:19;96655.94;;;15.79;36.44
20971;BME280;10644;48.834;10.088;2023-03-16T14:50:51;96665.97;;;16.17;35.70
20971;BME280;10644;48.834;10.088;2023-03-16T14:53:42;96666.31;;;16.23;36.59
20971;BME280;10644;48.834;10.088;2023-03-16T14:56:20;96666.44;;;16.33;36.00
20971;BME280;10644;48.834;10.088;2023-03-16T14:59:13;96669.75;;;16.35;35.32
20971;BME280;10644;48.834;10.088;2023-03-16T15:01:53;96665.63;;;16.21;35.78
20971;BME280;10644;48.834;10.088;2023-03-16T15:04:35;96652.22;;;16.05;35.04
20971;BME280;10644;48.834;10.088;2023-03-16T15:07:11;96662.38;;;15.05;36.53
20971;BME280;10644;48.834;10.088;2023-03-16T15:12:34;96663.78;;;15.09;36.87
20971;BME280;10644;48.834;10.088;2023-03-16T15:15:23;96657.00;;;15.08;37.14
20971;BME280;10644;48.834;10.088;2023-03-16T15:17:52;96648.03;;;15.24;36.93
20971;BME280;10644;48.834;10.088;2023-03-16T15:20:27;96659.50;;;15.33;36.31
20971;BME280;10644;48.834;10.088;2023-03-16T15:22:58;96676.63;;;15.34;36.59
20971;BME280;10644;48.834;10.088;2023-03-16T15:25:40;96670.56;;;15.46;36.21
20971;BME280;10644;48.834;10.088;2023-03-16T15:28:32;96681.44;;;15.38;36.55
20971;BME280;10644;48.834;10.088;2023-03-16T15:30:59;96667.13;;;15.45;35.63
20971;BME280;10644;48.834;10.088;2023-03-16T15:33:25;96650.38;;;15.51;35.93
20971;BME280;10644;48.834;10.088;2023-03-16T15:36:15;96665.41;;;15.57;36.25
20971;BME280;10644;48.834;10.088;2023-03-16T15:39:01;96674.38;;;15.40;36.17
20971;BME280;10644;48.834;10.088;2023-03-16T15:41:27;96669.00;;;15.43;36.15
20971;BME280;10644;48.834;10.088;2023-03-16T15:43:53;96658.72;;;15.31;36.04
20971;BME280;10644;48.834;10.088;2023-03-16T15:46:30;96660.00;;;15.25;35.97
20971;BME280;10644;48.834;10.088;2023-03-16T15:48:58;96664.69;;;15.20;36.34
20971;BME280;10644;48.834;10.088;2023-03-16T15:51:50;96652.44;;;15.35;36.46
20971;BME280;10644;48.834;10.088;2023-03-16T15:54:33;96658.72;;;15.31;36.67
20971;BME280;10644;48.834;10.088;2023-03-16T15:56:59;96662.03;;;14.86;36.21